Aérodrome :







RETROUVEZ-NOUS SUR...

 
LOGIN :

S'inscrire | Disclaimer

   EN    FR    IT 

 









Légende :    VFR   VFR Marginal   IFR   IFR Intensif   IFR Très Intensif
Visi : 
Plafond : 
>= 8 km
>= 3000ft
5 à 8 km
1000 à 3000 ft
1500m à 5 km
500 à 1000 ft
800 à 1500m
200 à 500 ft
< 800m
< 200 ft
Symboles :   Orages  Brouillard  Fortes neiges  Fortes précipitations  Vent > 20 kt






- Altitude de l'aérodrome : 235 ft
- Code IATA : CCS


SVMI - Simon Bolivar

DERNIER METAR :
  • 312002Z AUTO 31004KT NCD ///// Q1009

METARs EXPIRÉS :
  • 311902Z AUTO 30006KT NCD ///// Q1010
  • 311802Z AUTO 28006KT NCD ///// Q1011

TAF TAF SVMI
Valide du 31 à 18h jusqu'au 01 à 18h UTC


311600Z 3118/0118 05002KT 9999 SCT016 TX33/3118Z TN22/3118Z
TEMPO 3118/3122 07005KT 9999 SCT016
FIR SVZM / Amérique du Sud



MET'MAP, la Météo Aéronautique d'un coup d'oeil ! - Copyright ORBIFLY Décembre 2007 - Disclaimer

ORBIFLY MET'MAP TEAM :

Programmation & Développement : Alexandra Zaïnal
Sur une idée originale de : Baudouin d'Aumeries
Assistance à la programmation : Marc-Olivier Méhu
Soutien technique & logistique : Manuel Goepfert

Contact : metmap@orbifly.com




SOURCES & CREDITS :

   NOAA